Time;durP1;ratioP1;P1;durP2;ratioP2;P2;SDS_P1;SDS_P2;PMS_P1;PMS_P2;Temp;Humidity;BMP_temperature;BMP_pressure;BME280_temperature;BME280_humidity;BME280_pressure;Samples;Min_cycle;Max_cycle;Signal;HPM_P1;HPM_P2
2022/04/27 00:00:17;;;;;;;;;16.00;11.33;;;;;10.61;49.03;101940.94;4997074;28;45423;-69
2022/04/27 00:02:42;;;;;;;;;13.67;11.33;;;;;10.58;49.01;101935.72;4995991;28;62730;-69
2022/04/27 00:05:08;;;;;;;;;10.67;10.67;;;;;10.49;49.14;101928.91;4998496;28;46751;-69
2022/04/27 00:07:34;;;;;;;;;15.33;12.00;;;;;10.45;48.89;101934.38;4978479;28;45833;-69
2022/04/27 00:09:59;;;;;;;;;17.33;13.67;;;;;10.44;49.26;101936.16;4997359;28;45822;-69
2022/04/27 00:12:25;;;;;;;;;13.33;12.00;;;;;10.45;49.16;101945.00;4997878;28;64196;-69
2022/04/27 00:14:51;;;;;;;;;12.33;11.00;;;;;10.41;49.42;101944.22;4992354;28;45420;-68
2022/04/27 00:17:16;;;;;;;;;15.33;12.00;;;;;10.39;49.17;101949.59;4998037;28;45703;-69
2022/04/27 00:19:41;;;;;;;;;17.33;11.33;;;;;10.38;49.22;101947.84;4996874;28;59320;-69
2022/04/27 00:22:07;;;;;;;;;17.67;12.00;;;;;10.37;49.20;101950.56;4997243;28;66996;-68
2022/04/27 00:24:32;;;;;;;;;15.67;12.00;;;;;10.35;49.31;101945.31;4997312;28;60064;-69
2022/04/27 00:26:58;;;;;;;;;12.00;12.00;;;;;10.35;49.32;101937.31;4997686;28;45573;-69
2022/04/27 00:29:23;;;;;;;;;12.00;12.00;;;;;10.33;49.54;101947.09;4997925;28;61845;-69
2022/04/27 00:31:48;;;;;;;;;12.33;11.67;;;;;10.29;49.35;101942.78;4997472;28;45996;-69
2022/04/27 00:34:14;;;;;;;;;12.33;12.33;;;;;10.25;49.59;101944.66;4996477;28;64188;-69
2022/04/27 00:36:39;;;;;;;;;16.33;12.00;;;;;10.20;49.81;101943.06;4997496;28;61237;-69
2022/04/27 00:39:05;;;;;;;;;21.67;15.33;;;;;10.17;49.44;101945.81;4998100;28;45372;-68
2022/04/27 00:41:30;;;;;;;;;20.33;15.67;;;;;10.16;49.71;101942.28;4997241;28;45516;-69
2022/04/27 00:43:55;;;;;;;;;17.33;12.67;;;;;10.12;49.82;101939.75;4980536;28;45502;-69
2022/04/27 00:46:21;;;;;;;;;9.00;9.00;;;;;10.13;49.63;101946.81;4997074;28;59705;-68
2022/04/27 00:48:46;;;;;;;;;17.33;12.00;;;;;10.09;49.87;101938.94;5003418;28;45392;-69
2022/04/27 00:51:14;;;;;;;;;13.00;13.00;;;;;10.09;49.91;101938.94;4998679;28;47420;-69
2022/04/27 00:53:40;;;;;;;;;16.00;15.00;;;;;10.08;49.89;101939.84;4997622;28;45395;-69
2022/04/27 00:56:06;;;;;;;;;15.33;13.67;;;;;10.07;50.05;101937.25;4997870;28;45483;-69
2022/04/27 00:58:31;;;;;;;;;12.33;12.00;;;;;10.05;49.69;101937.31;4997635;28;45493;-69
2022/04/27 01:00:57;;;;;;;;;13.67;13.33;;;;;10.06;49.88;101933.75;4999080;28;46005;-70
2022/04/27 01:03:22;;;;;;;;;14.67;11.67;;;;;10.05;50.20;101939.97;4997793;28;58487;-69
2022/04/27 01:05:48;;;;;;;;;11.67;11.67;;;;;10.06;50.13;101938.16;4991912;28;45393;-69
2022/04/27 01:08:18;;;;;;;;;19.00;13.67;;;;;10.06;50.17;101935.50;4980587;28;45586;-69
2022/04/27 01:10:46;;;;;;;;;13.33;11.33;;;;;10.03;49.97;101930.28;4996283;28;46343;-69
2022/04/27 01:13:12;;;;;;;;;15.00;13.33;;;;;10.03;50.05;101925.84;4995571;28;45623;-70
2022/04/27 01:15:38;;;;;;;;;17.33;12.67;;;;;10.03;50.11;101930.28;4996610;28;45420;-69
2022/04/27 01:18:03;;;;;;;;;18.67;12.67;;;;;10.03;50.16;101930.28;4996917;28;58195;-69
2022/04/27 01:20:38;;;;;;;;;17.00;15.67;;;;;10.02;50.18;101928.53;4999036;28;46931;-69
2022/04/27 01:23:04;;;;;;;;;17.33;15.00;;;;;9.97;50.16;101931.31;4997526;28;45523;-69
2022/04/27 01:25:54;;;;;;;;;15.67;12.00;;;;;9.92;50.33;101926.16;4997782;28;45313;-69
2022/04/27 01:28:21;;;;;;;;;16.00;14.67;;;;;9.92;50.67;101933.25;4996144;28;45287;-69
2022/04/27 01:30:47;;;;;;;;;15.33;14.33;;;;;9.89;50.38;101931.53;4996474;28;46197;-70
2022/04/27 01:33:12;;;;;;;;;15.33;14.00;;;;;9.86;50.31;101931.66;4997881;28;45321;-69
2022/04/27 01:35:38;;;;;;;;;15.00;15.00;;;;;9.82;50.75;101930.00;4997212;28;45310;-69
2022/04/27 01:38:03;;;;;;;;;18.00;12.67;;;;;9.79;50.52;101926.56;4997026;28;45235;-69
2022/04/27 01:40:29;;;;;;;;;19.00;14.67;;;;;9.78;50.65;101933.66;4996233;28;46287;-69
2022/04/27 01:42:55;;;;;;;;;19.00;15.33;;;;;9.75;50.75;101929.31;4996456;28;45305;-69
2022/04/27 01:45:20;;;;;;;;;17.00;14.33;;;;;9.74;51.14;101926.69;4996815;28;48397;-69
2022/04/27 01:47:46;;;;;;;;;16.33;14.00;;;;;9.69;51.00;101934.78;4997238;28;45442;-69
2022/04/27 01:50:11;;;;;;;;;17.33;16.33;;;;;9.66;51.25;101928.69;4995835;28;62454;-69
2022/04/27 01:55:20;;;;;;;;;24.33;15.67;;;;;9.61;51.45;101923.53;4995427;28;45412;-70
2022/04/27 01:57:46;;;;;;;;;17.00;14.33;;;;;9.58;51.72;101923.59;4998778;28;62444;-69
2022/04/27 02:00:11;;;;;;;;;17.00;16.00;;;;;9.54;51.42;101916.63;4999656;28;45660;-69
2022/04/27 02:02:37;;;;;;;;;15.67;12.67;;;;;9.53;52.02;101933.47;4999690;28;45538;-69
2022/04/27 02:05:04;;;;;;;;;17.67;16.00;;;;;9.50;51.94;101939.72;4999115;28;62372;-69
2022/04/27 02:07:30;;;;;;;;;21.00;15.67;;;;;9.49;51.75;101945.09;4999920;28;45415;-69
2022/04/27 02:09:55;;;;;;;;;24.33;16.33;;;;;9.50;51.89;101947.69;4999338;28;46411;-69
2022/04/27 02:12:20;;;;;;;;;14.33;13.00;;;;;9.52;52.02;101945.03;4999220;28;45376;-69
2022/04/27 02:14:46;;;;;;;;;20.33;17.00;;;;;9.49;51.76;101945.97;4998243;28;61300;-69
2022/04/27 02:17:11;;;;;;;;;21.33;18.33;;;;;9.52;51.79;101953.00;4999451;28;61577;-68
2022/04/27 02:19:37;;;;;;;;;25.00;19.67;;;;;9.52;51.97;101951.19;4999845;28;51210;-69
2022/04/27 02:22:03;;;;;;;;;19.33;15.33;;;;;9.54;51.80;101946.72;4999057;28;45587;-68
2022/04/27 02:24:29;;;;;;;;;19.00;17.00;;;;;9.54;52.01;101954.69;5000369;28;45280;-68
2022/04/27 02:26:54;;;;;;;;;19.00;17.67;;;;;9.56;52.01;101946.69;4999907;28;45240;-68
2022/04/27 02:29:21;;;;;;;;;16.67;16.33;;;;;9.57;52.10;101943.97;4999825;28;45426;-68
2022/04/27 02:31:46;;;;;;;;;20.00;18.00;;;;;9.59;52.02;101942.16;4998684;28;46687;-68
2022/04/27 02:34:12;;;;;;;;;18.33;18.33;;;;;9.61;52.19;101944.78;4999880;28;50457;-68
2022/04/27 02:36:37;;;;;;;;;20.00;17.33;;;;;9.64;52.08;101946.47;4998477;28;62474;-68
2022/04/27 02:39:02;;;;;;;;;22.33;19.33;;;;;9.61;52.38;101939.47;4998696;28;68190;-68
2022/04/27 02:41:28;;;;;;;;;24.33;19.33;;;;;9.60;52.21;101938.56;4999510;28;54157;-69
2022/04/27 02:43:55;;;;;;;;;24.67;21.67;;;;;9.60;52.04;101948.34;4998059;28;61059;-69
2022/04/27 02:46:20;;;;;;;;;21.67;17.00;;;;;9.59;52.44;101939.50;5000086;28;45582;-69
2022/04/27 02:51:49;;;;;;;;;18.00;18.00;;;;;9.63;52.28;101948.25;4982099;28;45428;-69
2022/04/27 02:54:18;;;;;;;;;24.67;16.00;;;;;9.65;52.28;101934.91;4998916;28;45844;-69
2022/04/27 02:56:43;;;;;;;;;19.00;18.67;;;;;9.66;52.47;101934.00;4998523;28;45228;-69
2022/04/27 02:59:09;;;;;;;;;22.67;19.33;;;;;9.64;52.53;101934.03;4998581;28;45287;-68
2022/04/27 03:01:34;;;;;;;;;22.67;18.00;;;;;9.60;52.42;101927.94;5002798;28;45506;-68
2022/04/27 03:04:00;;;;;;;;;25.67;19.00;;;;;9.59;52.53;101931.53;4998745;28;45515;-69
2022/04/27 03:06:25;;;;;;;;;23.00;20.33;;;;;9.60;52.61;101929.75;4999253;28;45724;-69
2022/04/27 03:08:51;;;;;;;;;21.00;19.33;;;;;9.60;52.57;101927.94;4997718;28;69000;-69
2022/04/27 03:11:16;;;;;;;;;21.33;18.67;;;;;9.62;52.58;101922.63;4998731;28;66980;-68
2022/04/27 03:13:41;;;;;;;;;30.67;19.67;;;;;9.62;52.74;101927.03;4998272;28;61179;-69
2022/04/27 03:16:07;;;;;;;;;23.67;19.67;;;;;9.59;52.66;101928.00;4998665;28;56834;-70
2022/04/27 03:18:32;;;;;;;;;26.00;22.00;;;;;9.57;52.87;101921.88;4998843;28;59109;-69
2022/04/27 03:20:57;;;;;;;;;29.00;25.33;;;;;9.55;52.83;101929.84;4998307;28;67842;-69
2022/04/27 03:23:24;;;;;;;;;29.33;20.67;;;;;9.51;53.31;101928.19;4997929;28;63363;-69
2022/04/27 03:25:49;;;;;;;;;25.00;23.00;;;;;9.43;53.19;101933.72;4999327;28;46828;-69
2022/04/27 03:28:15;;;;;;;;;24.33;21.00;;;;;9.38;53.33;101926.81;4997786;28;45612;-68
2022/04/27 03:30:40;;;;;;;;;26.33;22.33;;;;;9.35;53.42;101924.25;4998777;28;45268;-69
2022/04/27 03:33:06;;;;;;;;;27.67;21.67;;;;;9.32;53.69;101927.84;4998771;28;45763;-69
2022/04/27 03:35:31;;;;;;;;;27.00;25.00;;;;;9.27;53.89;101925.31;4999086;28;45503;-69
2022/04/27 03:37:58;;;;;;;;;30.33;22.67;;;;;9.22;53.94;101918.38;4997986;28;45896;-68
2022/04/27 03:40:26;;;;;;;;;26.67;22.00;;;;;9.21;54.27;101920.16;4997987;28;45452;-69
2022/04/27 03:42:52;;;;;;;;;29.33;25.67;;;;;9.17;54.00;101917.63;4998172;28;45400;-68
2022/04/27 03:45:19;;;;;;;;;23.00;22.00;;;;;9.12;54.46;101914.22;4998393;28;46706;-69
2022/04/27 03:47:46;;;;;;;;;25.33;21.00;;;;;9.08;54.29;101924.03;4997712;28;46211;-68
2022/04/27 03:50:12;;;;;;;;;32.67;25.33;;;;;9.04;54.60;101915.28;4998718;28;45392;-69
2022/04/27 03:52:37;;;;;;;;;23.67;23.33;;;;;9.02;54.67;101910.94;4997331;28;63150;-68
2022/04/27 03:55:02;;;;;;;;;24.33;19.67;;;;;8.99;55.38;101919.84;4997742;28;63962;-69
2022/04/27 03:57:28;;;;;;;;;29.33;24.67;;;;;8.97;55.25;101923.44;4998683;28;46132;-69
2022/04/27 03:59:54;;;;;;;;;29.33;25.33;;;;;8.92;55.16;101927.09;4997955;28;45711;-68
2022/04/27 04:02:19;;;;;;;;;34.00;29.00;;;;;8.88;54.93;101917.47;4997518;28;45476;-69
2022/04/27 04:04:45;;;;;;;;;28.33;24.00;;;;;8.87;55.51;101918.38;4997223;28;50009;-69
2022/04/27 04:07:12;;;;;;;;;35.67;26.33;;;;;8.85;55.34;101922.84;4997064;28;69223;-69
2022/04/27 04:09:38;;;;;;;;;29.67;24.33;;;;;8.83;55.54;101927.31;4998554;28;45920;-68
2022/04/27 04:12:04;;;;;;;;;27.50;21.50;;;;;8.82;55.43;101933.53;4998014;28;45488;-69
2022/04/27 04:14:30;;;;;;;;;32.33;26.00;;;;;8.81;56.05;101931.78;4998587;28;45416;-69
2022/04/27 04:16:55;;;;;;;;;33.00;26.25;;;;;8.76;56.42;101934.56;4996679;28;68799;-68
2022/04/27 04:19:20;;;;;;;;;31.67;26.00;;;;;8.73;56.46;101931.97;4997803;28;45443;-69
2022/04/27 04:21:46;;;;;;;;;30.67;26.33;;;;;8.71;56.22;101932.94;4999114;28;61464;-68
2022/04/27 04:24:11;;;;;;;;;39.50;30.00;;;;;8.66;57.06;101927.72;4997090;28;64036;-69
2022/04/27 04:29:21;;;;;;;;;29.67;27.33;;;;;8.59;55.97;101936.72;4998499;28;45317;-69
2022/04/27 04:31:46;;;;;;;;;31.67;27.00;;;;;8.58;56.94;101938.53;4998538;28;45396;-68
2022/04/27 04:34:12;;;;;;;;;36.00;29.67;;;;;8.56;57.04;101948.28;4998602;28;45281;-69
2022/04/27 04:36:37;;;;;;;;;31.67;27.00;;;;;8.52;57.75;101941.31;4997058;28;68633;-68
2022/04/27 04:39:03;;;;;;;;;35.00;28.00;;;;;8.48;57.39;101944.94;4996500;28;68430;-69
2022/04/27 04:41:28;;;;;;;;;28.50;26.75;;;;;8.46;57.49;101946.78;4998007;28;46616;-68
2022/04/27 04:43:53;;;;;;;;;30.33;27.33;;;;;8.43;57.15;101936.19;4994955;28;62850;-68
2022/04/27 04:46:19;;;;;;;;;31.25;29.50;;;;;8.41;57.57;101941.53;4996860;28;69297;-69
2022/04/27 04:48:44;;;;;;;;;30.00;29.50;;;;;8.42;57.16;101942.38;4997500;28;49696;-68
2022/04/27 04:51:09;;;;;;;;;33.75;30.25;;;;;8.44;57.14;101949.41;4997971;28;45595;-69
2022/04/27 04:53:35;;;;;;;;;39.50;32.75;;;;;8.46;57.35;101952.09;4994690;28;65271;-69
2022/04/27 04:56:00;;;;;;;;;38.50;31.50;;;;;8.48;57.24;101958.19;4996447;28;66799;-69
2022/04/27 04:58:25;;;;;;;;;35.25;31.00;;;;;8.49;58.24;101965.25;4996654;28;66704;-68
2022/04/27 05:00:51;;;;;;;;;48.25;31.75;;;;;8.52;57.47;101964.31;4996830;28;60509;-69
2022/04/27 05:03:17;;;;;;;;;38.50;28.00;;;;;8.52;57.57;101961.66;4998039;28;45275;-68
2022/04/27 05:05:42;;;;;;;;;38.50;30.50;;;;;8.54;57.24;101959.84;4997951;28;45586;-68
2022/04/27 05:08:09;;;;;;;;;41.50;31.00;;;;;8.56;57.52;101963.34;5005081;28;46795;-67
2022/04/27 05:10:35;;;;;;;;;35.50;28.75;;;;;8.57;57.48;101971.25;4997506;28;45464;-68
2022/04/27 05:13:00;;;;;;;;;34.00;33.25;;;;;8.58;57.18;101975.66;4996956;28;45604;-68
2022/04/27 05:15:26;;;;;;;;;30.75;29.00;;;;;8.63;57.45;101964.06;4996769;28;67603;-68
2022/04/27 05:17:51;;;;;;;;;38.00;32.75;;;;;8.67;57.59;101971.03;4995989;28;45526;-69
2022/04/27 05:20:17;;;;;;;;;44.25;34.00;;;;;8.69;57.23;101971.88;4998333;28;45354;-68
2022/04/27 05:22:42;;;;;;;;;41.50;31.25;;;;;8.71;57.41;101978.03;4995775;28;45364;-69
2022/04/27 05:25:08;;;;;;;;;35.75;32.50;;;;;8.75;57.21;101979.69;4995484;28;68887;-69
2022/04/27 05:27:35;;;;;;;;;39.67;32.00;;;;;8.79;57.44;101978.72;4996344;28;45612;-69
2022/04/27 05:32:45;;;;;;;;;37.25;32.00;;;;;8.91;57.49;101983.72;4983892;28;45373;-69
2022/04/27 05:35:10;;;;;;;;;36.75;32.75;;;;;8.92;57.64;101987.25;4989735;28;45601;-69
2022/04/27 05:37:36;;;;;;;;;35.75;30.25;;;;;8.93;57.20;101981.91;5000177;28;57803;-68
2022/04/27 05:40:02;;;;;;;;;38.75;34.00;;;;;8.97;57.18;101985.38;5000371;28;45301;-70
2022/04/27 05:42:27;;;;;;;;;40.50;35.00;;;;;9.02;57.09;101988.78;5001038;28;45603;-69
2022/04/27 05:44:53;;;;;;;;;46.00;36.50;;;;;9.08;57.26;101993.06;5001171;28;45396;-69
2022/04/27 05:47:18;;;;;;;;;50.75;37.25;;;;;9.10;57.23;101993.91;4999881;28;67562;-69
2022/04/27 05:49:43;;;;;;;;;40.50;33.50;;;;;9.13;56.78;102000.91;5000851;28;57111;-69
2022/04/27 05:52:09;;;;;;;;;47.25;31.75;;;;;9.13;56.80;101995.59;4999035;28;62793;-70
2022/04/27 05:54:34;;;;;;;;;44.75;35.00;;;;;9.18;56.74;102002.53;5000938;28;45735;-69
2022/04/27 05:57:00;;;;;;;;;40.75;36.00;;;;;9.25;56.83;102003.25;4999232;28;66948;-68
2022/04/27 05:59:25;;;;;;;;;36.00;31.00;;;;;9.30;56.63;102006.66;5000983;28;63285;-68
2022/04/27 06:01:50;;;;;;;;;39.25;32.50;;;;;9.37;56.44;102015.34;5000258;28;45436;-68
2022/04/27 06:04:16;;;;;;;;;54.75;38.00;;;;;9.44;56.40;102016.94;4999973;28;46985;-68
2022/04/27 06:06:41;;;;;;;;;37.00;34.00;;;;;9.51;56.60;102012.34;5000321;28;45356;-68
2022/04/27 06:09:07;;;;;;;;;38.50;34.00;;;;;9.55;56.29;102021.97;5001505;28;45917;-69
2022/04/27 06:11:32;;;;;;;;;28.50;25.50;;;;;9.57;56.27;102030.78;4999727;28;45627;-68
2022/04/27 06:13:57;;;;;;;;;36.50;32.75;;;;;9.53;56.75;102022.00;4999539;28;68338;-68
2022/04/27 06:16:24;;;;;;;;;43.50;35.50;;;;;9.56;56.27;102026.38;5000310;28;68421;-68
2022/04/27 06:18:50;;;;;;;;;45.75;36.50;;;;;9.60;56.65;102034.19;5000654;28;45266;-67
2022/04/27 06:21:17;;;;;;;;;32.67;29.33;;;;;9.68;55.84;102041.09;4999632;28;45546;-68
2022/04/27 06:23:42;;;;;;;;;38.75;33.00;;;;;9.78;55.77;102037.28;4994370;28;46951;-68
2022/04/27 06:26:08;;;;;;;;;52.25;32.75;;;;;9.90;55.55;102042.25;4999460;28;66741;-67
2022/04/27 06:28:33;;;;;;;;;35.50;30.25;;;;;10.07;55.32;102036.47;5000779;28;45494;-66
2022/04/27 06:30:59;;;;;;;;;39.50;33.50;;;;;10.29;55.12;102041.19;5000367;28;45575;-66
2022/04/27 06:33:24;;;;;;;;;38.50;35.25;;;;;10.56;54.63;102046.66;4999973;28;46968;-65
2022/04/27 06:35:50;;;;;;;;;37.50;31.00;;;;;10.83;54.44;102050.22;4998852;28;69212;-66
2022/04/27 06:38:16;;;;;;;;;38.25;32.50;;;;;11.13;53.95;102050.16;4999487;28;45245;-66
2022/04/27 06:40:41;;;;;;;;;46.00;34.00;;;;;11.47;53.42;102045.53;4996121;28;45436;-65
2022/04/27 06:43:07;;;;;;;;;32.00;28.33;;;;;11.81;54.28;102047.03;5000364;28;45940;-60
2022/04/27 06:45:33;;;;;;;;;43.75;29.50;;;;;12.19;53.23;102048.34;5000143;28;45286;-60
2022/04/27 06:47:58;;;;;;;;;39.25;34.50;;;;;12.61;52.65;102046.78;4997538;28;45623;-55
2022/04/27 06:50:25;;;;;;;;;35.33;29.67;;;;;13.01;51.88;102050.53;4994936;28;65772;-54
2022/04/27 06:52:52;;;;;;;;;43.25;34.00;;;;;13.29;50.95;102046.72;4999444;28;47286;-55
2022/04/27 06:55:18;;;;;;;;;39.25;36.00;;;;;13.58;50.41;102052.66;5000075;28;45339;-54
2022/04/27 06:57:43;;;;;;;;;40.75;32.50;;;;;13.86;50.21;102054.16;4998015;28;45495;-53
2022/04/27 07:00:10;;;;;;;;;40.00;33.00;;;;;14.14;49.06;102055.59;4998941;28;70063;-55
2022/04/27 07:02:35;;;;;;;;;44.67;32.67;;;;;14.38;48.42;102049.13;4998690;28;47199;-54
2022/04/27 07:05:01;;;;;;;;;39.00;35.33;;;;;14.67;47.76;102059.44;4998075;28;73150;-54
2022/04/27 07:07:29;;;;;;;;;43.00;32.00;;;;;14.78;47.20;102065.13;4998721;28;45520;-54
2022/04/27 07:09:58;;;;;;;;;35.33;33.00;;;;;14.80;47.26;102063.25;4978518;28;58402;-56
2022/04/27 07:12:23;;;;;;;;;33.33;30.33;;;;;14.85;46.63;102063.91;4996023;28;67200;-56
2022/04/27 07:14:50;;;;;;;;;45.33;30.00;;;;;14.96;46.01;102067.88;4975586;28;45607;-56
2022/04/27 07:17:16;;;;;;;;;40.33;32.00;;;;;14.98;45.74;102072.22;4996830;28;45456;-56
2022/04/27 07:19:41;;;;;;;;;39.33;34.00;;;;;15.15;45.70;102073.22;5000681;28;45597;-60
2022/04/27 07:22:06;;;;;;;;;43.00;35.00;;;;;15.34;45.43;102071.38;5005068;28;45833;-60
2022/04/27 07:24:36;;;;;;;;;33.67;32.67;;;;;15.66;45.18;102074.22;5002270;28;45405;-60
2022/04/27 07:27:01;;;;;;;;;41.67;33.33;;;;;16.09;44.17;102064.88;4998468;28;45674;-60
2022/04/27 07:29:26;;;;;;;;;42.67;35.00;;;;;16.51;43.63;102066.22;4999151;28;45359;-60
2022/04/27 07:31:52;;;;;;;;;39.33;34.00;;;;;16.82;43.05;102064.50;4997447;28;74489;-60
2022/04/27 07:34:17;;;;;;;;;39.67;32.33;;;;;17.19;42.57;102070.47;4999007;28;45424;-60
2022/04/27 07:36:43;;;;;;;;;43.67;33.67;;;;;17.60;41.28;102069.88;4997873;28;46059;-60
2022/04/27 07:39:08;;;;;;;;;39.00;33.33;;;;;18.05;42.00;102074.41;4995948;28;45420;-62
2022/04/27 07:41:34;;;;;;;;;43.67;35.00;;;;;18.79;41.19;102075.16;4997483;28;71967;-62
2022/04/27 07:43:59;;;;;;;;;44.00;34.67;;;;;19.39;40.49;102073.91;4998134;28;66210;-62
2022/04/27 07:46:25;;;;;;;;;31.00;30.33;;;;;19.75;39.27;102076.91;4998201;28;45436;-62
2022/04/27 07:48:54;;;;;;;;;36.67;30.67;;;;;20.16;37.84;102067.78;4998596;28;45604;-62
2022/04/27 07:51:20;;;;;;;;;32.33;28.67;;;;;20.86;37.67;102070.91;4996875;28;46583;-60
2022/04/27 07:53:45;;;;;;;;;36.33;33.00;;;;;21.58;36.59;102072.78;4993975;28;45377;-60
2022/04/27 07:56:10;;;;;;;;;45.33;34.67;;;;;22.13;35.49;102070.28;4996404;28;69328;-60
2022/04/27 07:58:36;;;;;;;;;38.67;31.33;;;;;22.54;34.80;102074.28;4997804;28;70403;-60
2022/04/27 08:01:01;;;;;;;;;33.00;30.33;;;;;23.08;32.75;102077.97;4997589;28;46232;-59
2022/04/27 08:03:27;;;;;;;;;37.67;33.67;;;;;23.52;32.22;102077.09;4980677;28;45516;-59
2022/04/27 08:05:52;;;;;;;;;35.00;32.00;;;;;23.85;32.17;102081.47;4998289;28;45503;-60
2022/04/27 08:08:18;;;;;;;;;39.67;33.33;;;;;24.19;30.35;102080.44;4997728;28;63882;-59
2022/04/27 08:10:43;;;;;;;;;36.33;33.00;;;;;24.50;30.81;102078.56;4997656;28;71480;-59
2022/04/27 08:13:08;;;;;;;;;37.00;31.67;;;;;25.12;29.85;102067.53;4997624;28;45490;-61
2022/04/27 08:15:34;;;;;;;;;37.67;32.67;;;;;25.64;28.11;102074.59;4996189;28;45386;-61
2022/04/27 08:18:06;;;;;;;;;39.67;32.00;;;;;26.09;28.61;102080.25;4995039;28;53192;-62
2022/04/27 08:23:20;;;;;;;;;43.00;34.00;;;;;27.35;27.46;102076.09;4980712;28;45446;-61
2022/04/27 08:25:46;;;;;;;;;42.67;34.00;;;;;27.85;26.63;102083.72;4995896;28;45523;-62
2022/04/27 08:28:11;;;;;;;;;39.00;33.33;;;;;28.33;26.96;102078.72;4996935;28;45258;-61
2022/04/27 08:30:38;;;;;;;;;34.67;32.67;;;;;28.81;26.04;102075.50;4997706;28;51061;-62
2022/04/27 08:33:04;;;;;;;;;32.67;31.00;;;;;29.30;25.63;102080.25;4997778;28;45648;-62
2022/04/27 08:35:29;;;;;;;;;34.67;31.33;;;;;29.84;25.01;102080.56;4997580;28;45498;-61
2022/04/27 08:37:55;;;;;;;;;40.67;32.00;;;;;30.31;23.35;102086.31;4997357;28;45854;-62
2022/04/27 08:40:20;;;;;;;;;32.33;30.00;;;;;30.94;23.77;102079.00;4997552;28;45487;-62
2022/04/27 08:42:48;;;;;;;;;38.67;32.00;;;;;31.29;23.09;102081.34;4988560;28;45577;-62
2022/04/27 08:45:13;;;;;;;;;35.67;31.00;;;;;31.58;23.45;102088.00;4997290;28;45436;-61
2022/04/27 08:47:38;;;;;;;;;33.00;30.33;;;;;32.08;22.21;102082.88;4980515;28;48811;-62
2022/04/27 08:50:14;;;;;;;;;32.33;30.00;;;;;32.51;21.86;102090.47;4997588;28;46407;-61
2022/04/27 08:52:40;;;;;;;;;33.33;30.67;;;;;32.94;21.14;102079.56;4998096;28;45436;-62
2022/04/27 08:55:06;;;;;;;;;36.67;30.67;;;;;33.20;20.60;102083.66;4997446;28;45804;-62
2022/04/27 08:57:32;;;;;;;;;33.33;29.33;;;;;33.60;21.12;102070.28;4998428;28;45523;-62
2022/04/27 08:59:57;;;;;;;;;35.67;31.67;;;;;34.18;20.95;102078.31;4995921;28;75413;-62
2022/04/27 09:02:26;;;;;;;;;35.00;31.67;;;;;34.65;19.84;102084.06;4998180;28;73343;-62
2022/04/27 09:05:18;;;;;;;;;35.33;29.67;;;;;34.89;19.11;102085.47;5001021;28;45503;-62
2022/04/27 09:07:50;;;;;;;;;33.67;28.33;;;;;35.48;18.78;102076.66;4993683;28;51832;-62
2022/04/27 09:10:16;;;;;;;;;33.67;30.33;;;;;35.93;18.88;102085.13;4995413;28;47125;-62
2022/04/27 09:12:46;;;;;;;;;35.00;30.67;;;;;36.34;18.72;102083.97;5000837;28;45603;-62
2022/04/27 09:15:12;;;;;;;;;35.67;31.00;;;;;36.89;18.16;102085.44;5000760;28;45479;-62
2022/04/27 09:23:27;;;;;;;;;35.33;31.67;;;;;38.70;16.57;102075.38;4999982;28;45479;-62
2022/04/27 09:25:55;;;;;;;;;38.33;32.00;;;;;38.97;16.15;102084.22;4996036;28;45535;-62
2022/04/27 09:28:27;;;;;;;;;32.33;29.67;;;;;39.31;16.49;102078.13;4986617;28;45456;-62
2022/04/27 09:30:52;;;;;;;;;31.67;30.00;;;;;39.92;15.86;102076.03;4999351;28;46057;-62
2022/04/27 09:33:39;;;;;;;;;31.67;30.00;;;;;40.04;14.97;102084.34;4968496;28;55418;-62
2022/04/27 09:36:23;;;;;;;;;33.00;27.67;;;;;40.36;15.48;102086.72;4998905;28;45436;-62
2022/04/27 09:38:48;;;;;;;;;34.67;32.00;;;;;40.59;14.88;102094.19;4999105;28;45471;-62
2022/04/27 09:41:13;;;;;;;;;31.00;29.00;;;;;40.42;14.35;102096.00;5000671;28;54594;-62
2022/04/27 09:43:45;;;;;;;;;34.00;31.00;;;;;40.53;15.05;102086.81;4999769;28;45507;-62
2022/04/27 09:46:25;;;;;;;;;34.33;31.00;;;;;40.93;14.73;102091.47;4999812;28;45516;-62
2022/04/27 09:49:07;;;;;;;;;32.33;30.00;;;;;41.13;14.68;102087.38;4998391;28;45288;-62
2022/04/27 09:51:32;;;;;;;;;33.33;29.67;;;;;41.35;15.11;102087.47;5000536;28;47157;-62
2022/04/27 09:53:59;;;;;;;;;35.00;31.00;;;;;41.27;14.45;102077.56;4981935;28;71477;-62
2022/04/27 09:56:24;;;;;;;;;32.67;31.00;;;;;41.35;13.88;102067.94;5000554;28;45342;-63
2022/04/27 09:58:50;;;;;;;;;32.33;31.33;;;;;41.22;12.31;102079.44;4984528;28;45408;-63
2022/04/27 10:01:16;;;;;;;;;35.33;30.33;;;;;40.87;13.14;102077.69;4979438;28;75571;-62
2022/04/27 10:03:41;;;;;;;;;37.00;31.00;;;;;40.75;13.17;102072.19;4999433;28;45479;-63
2022/04/27 10:06:07;;;;;;;;;32.67;31.33;;;;;40.61;13.08;102074.41;4990408;28;45487;-62
2022/04/27 10:08:35;;;;;;;;;36.67;33.33;;;;;40.13;13.82;102063.41;4967285;28;46317;-62
2022/04/27 10:11:00;;;;;;;;;32.33;29.33;;;;;40.02;13.60;102072.59;4979519;28;46633;-62
2022/04/27 10:13:25;;;;;;;;;36.67;32.00;;;;;40.28;13.74;102060.09;4981340;28;45495;-60
2022/04/27 10:15:51;;;;;;;;;35.00;30.00;;;;;40.40;13.86;102056.41;4979587;28;64780;-62
2022/04/27 10:18:17;;;;;;;;;36.00;32.67;;;;;40.65;14.17;102056.94;4991357;28;70437;-62
2022/04/27 10:20:43;;;;;;;;;33.33;30.33;;;;;40.99;13.61;102050.59;4962749;28;47294;-62
2022/04/27 10:23:27;;;;;;;;;37.33;30.33;;;;;41.07;13.42;102050.19;4992605;28;45765;-62
2022/04/27 10:26:13;;;;;;;;;37.33;32.67;;;;;40.86;14.57;102040.59;4998524;28;45412;-62
2022/04/27 10:28:54;;;;;;;;;30.33;29.67;;;;;41.44;13.09;102043.28;4995613;28;45558;-62
2022/04/27 10:31:46;;;;;;;;;37.33;33.00;;;;;41.83;13.39;102019.00;4998268;28;45986;-61
2022/04/27 10:34:19;;;;;;;;;32.33;30.00;;;;;41.28;12.85;102022.63;4995871;28;45459;-62
2022/04/27 10:36:50;;;;;;;;;32.33;29.33;;;;;40.31;12.73;102023.38;4995219;28;45502;-62
2022/04/27 10:39:16;;;;;;;;;33.67;31.00;;;;;39.33;13.43;102021.16;4981511;28;45360;-62
2022/04/27 10:41:48;;;;;;;;;30.33;29.67;;;;;39.64;13.75;102013.56;4999116;28;45522;-62
2022/04/27 10:44:14;;;;;;;;;34.00;29.67;;;;;40.34;13.97;102013.69;4998001;28;45360;-63
2022/04/27 10:46:41;;;;;;;;;33.00;30.67;;;;;40.76;12.34;102018.13;4974749;28;45345;-62
2022/04/27 10:49:25;;;;;;;;;32.33;29.33;;;;;40.57;12.56;102026.69;4995305;28;45675;-62
2022/04/27 10:52:07;;;;;;;;;35.00;31.00;;;;;40.58;13.76;102019.19;4996048;28;46195;-62
2022/04/27 10:54:34;;;;;;;;;34.67;31.67;;;;;40.73;13.01;102013.03;4981100;28;45426;-62
2022/04/27 10:57:15;;;;;;;;;33.67;30.67;;;;;40.45;12.73;102011.94;4995873;28;45530;-62
2022/04/27 10:59:43;;;;;;;;;34.67;28.33;;;;;40.63;12.71;102016.50;4996995;28;45715;-62
2022/04/27 11:02:44;;;;;;;;;26.33;26.00;;;;;40.27;13.35;102016.59;4982347;28;46100;-62
2022/04/27 11:05:16;;;;;;;;;27.67;26.67;;;;;40.33;12.86;102004.47;4969714;28;45371;-62
2022/04/27 11:07:52;;;;;;;;;26.33;24.67;;;;;40.90;12.57;101996.31;4998149;28;45582;-62
2022/04/27 11:10:19;;;;;;;;;28.00;27.33;;;;;40.01;12.40;102006.84;4975927;28;45549;-62
2022/04/27 11:12:49;;;;;;;;;29.33;26.33;;;;;37.95;13.57;102002.38;4985399;28;46063;-61
2022/04/27 11:15:17;;;;;;;;;23.00;23.00;;;;;36.70;14.80;102004.09;4980122;28;45510;-62
2022/04/27 11:17:42;;;;;;;;;28.00;25.00;;;;;36.37;14.94;101994.91;4965883;28;45423;-61
2022/04/27 11:20:33;;;;;;;;;20.67;20.00;;;;;34.61;15.86;101995.28;4997953;28;45701;-61
2022/04/27 11:22:59;;;;;;;;;28.67;23.67;;;;;33.86;16.54;102002.56;5000666;28;46119;-61
2022/04/27 11:25:31;;;;;;;;;31.33;28.33;;;;;32.40;17.69;101996.34;4998696;28;45526;-61
2022/04/27 11:28:00;;;;;;;;;25.00;24.00;;;;;32.28;18.06;101993.22;4997042;28;45366;-61
2022/04/27 11:30:26;;;;;;;;;32.00;27.00;;;;;31.94;17.99;101991.03;4999374;28;45385;-61